RJTY/OKO METAR and TAF weather

Enter ICAO airport designator
Station Type Date Time Source
RJTY METAR 2021/07/28 14:56 UTC NOAA

RJTY 281456Z AUTO 00000KT 10SM CLR 24/22 A2965 RMK AO2 SLP036 60027 T02360220 403140223 53002 FZRANO $


Station Type Date Time Source
RJTY Decoded METAR 2021/07/28 14:56 UTC NOAA

Yokota Ab, Japan (RJTY) 35-45N 139-21E 142M
Jul 28, 2021 - 10:56 AM EDT / 2021.07.28 1456 UTC
Wind: Calm:0
Visibility: 10 mile(s):0
Sky conditions: clear
Temperature: 74.5 F (23.6 C)
Dew Point: 71.6 F (22.0 C)
Relative Humidity: 90%
Pressure (altimeter): 29.65 in. Hg (1004 hPa)
Pressure tendency: 0.01 inches (0.2 hPa) higher than three hours ago
ob: RJTY 281456Z AUTO 00000KT 10SM CLR 24/22 A2965 RMK AO2 SLP036 60027 T02360220 403140223 53002 FZRANO
cycle: 15

Station Type Date Time Source
RJTY TAF 2021/07/28 13:10 UTC NOAA

TAF RJTY 281300Z 2813/2919 35009KT 9999 VCSH SCT040 BKN060 QNH2960INS
TEMPO 2813/2818 8000 -SHRA BKN020
TEMPO 2818/2821 8000 BR BKN007 OVC020
BECMG 2900/2901 16009KT 9999 NSW FEW020 SCT040 BKN060 QNH2957INS
BECMG 2903/2904 17009KT 8000 -SHRA VCTS SCT030CB BKN040 QNH2955INS
TEMPO 2904/2908 17012G18KT
BECMG 2908/2909 17009KT 9999 NSW SCT040 BKN060 QNH2956INS TX33/2905Z TN24/2821Z LAST NO
AMDS AFT 2813 NEXT 2821

Example: see airport list